createdAt,value
2022-12-20T00:01:30.553Z,4.54
2022-12-20T00:04:00.325Z,4.56
2022-12-20T00:06:29.325Z,4.62
2022-12-20T00:08:58.779Z,4.57
2022-12-20T00:11:27.004Z,4.54
2022-12-20T00:13:54.632Z,4.58
2022-12-20T00:16:24.164Z,4.60
2022-12-20T00:18:53.924Z,4.58
2022-12-20T00:21:21.929Z,4.57
2022-12-20T00:23:50.055Z,4.60
2022-12-20T00:26:19.673Z,4.62
2022-12-20T00:28:47.573Z,4.67
2022-12-20T00:31:18.064Z,4.59
2022-12-20T00:33:48.465Z,4.62
2022-12-20T00:36:17.363Z,4.65
2022-12-20T00:38:46.094Z,4.60
2022-12-20T00:41:22.578Z,4.58
2022-12-20T00:43:52.423Z,4.69
2022-12-20T00:46:21.483Z,4.58
2022-12-20T00:48:49.376Z,4.52
2022-12-20T00:51:19.694Z,4.47
2022-12-20T00:53:47.822Z,4.54
2022-12-20T00:56:15.558Z,4.51
2022-12-20T00:58:44.123Z,4.52
2022-12-20T01:01:19.109Z,4.55
2022-12-20T01:03:49.756Z,4.59
2022-12-20T01:06:18.134Z,4.61
2022-12-20T01:08:45.914Z,4.54
2022-12-20T01:11:19.724Z,4.50
2022-12-20T01:13:51.111Z,4.52
2022-12-20T01:16:29.632Z,4.49
2022-12-20T01:18:57.693Z,4.56
2022-12-20T01:21:27.311Z,4.55
2022-12-20T01:23:55.827Z,4.62
2022-12-20T01:26:26.330Z,4.62
2022-12-20T01:28:56.592Z,4.59
2022-12-20T01:31:28.396Z,4.56
2022-12-20T01:33:56.692Z,4.55
2022-12-20T01:36:29.605Z,4.49
2022-12-20T01:39:04.018Z,4.49
2022-12-20T01:41:33.457Z,4.48
2022-12-20T01:44:04.579Z,4.38
2022-12-20T01:46:34.723Z,4.38
2022-12-20T01:49:13.139Z,4.53
2022-12-20T01:51:47.087Z,4.51
2022-12-20T01:54:20.186Z,4.52
2022-12-20T01:56:55.770Z,4.62
2022-12-20T01:59:23.857Z,4.51
2022-12-20T02:01:51.872Z,4.48
2022-12-20T02:04:19.352Z,4.45
2022-12-20T02:06:46.696Z,4.36
2022-12-20T02:09:14.461Z,4.48
2022-12-20T02:11:51.749Z,4.45
2022-12-20T02:14:35.339Z,4.53
2022-12-20T02:17:44.740Z,4.49
2022-12-20T02:20:49.419Z,4.58
2022-12-20T02:23:38.247Z,4.56
2022-12-20T02:26:33.400Z,4.50
2022-12-20T02:29:25.922Z,4.53
2022-12-20T02:32:04.939Z,4.57
2022-12-20T02:34:35.465Z,4.62
2022-12-20T02:37:03.104Z,4.64
2022-12-20T02:39:31.752Z,4.61
2022-12-20T02:42:07.410Z,4.71
2022-12-20T02:44:57.822Z,4.65
2022-12-20T02:47:30.970Z,4.63
2022-12-20T02:49:58.738Z,4.63
2022-12-20T02:52:31.070Z,4.64
2022-12-20T02:54:59.669Z,4.66
2022-12-20T02:57:37.980Z,4.68
2022-12-20T03:00:08.304Z,4.59
2022-12-20T03:02:55.348Z,4.60
2022-12-20T03:05:26.714Z,4.64
2022-12-20T03:07:54.773Z,4.58
2022-12-20T03:10:25.683Z,4.59
2022-12-20T03:12:53.031Z,4.59
2022-12-20T03:15:21.082Z,4.56
2022-12-20T03:17:52.175Z,4.53
2022-12-20T03:20:19.641Z,4.40
2022-12-20T03:23:17.617Z,4.48
2022-12-20T03:25:45.034Z,4.53
2022-12-20T03:28:18.791Z,4.47
2022-12-20T03:30:47.157Z,4.51
2022-12-20T03:33:14.755Z,4.53
2022-12-20T03:35:43.175Z,4.46
2022-12-20T03:38:11.182Z,4.37
2022-12-20T03:40:38.779Z,4.47
2022-12-20T03:43:06.254Z,4.42
2022-12-20T03:45:34.080Z,4.50
2022-12-20T03:48:01.555Z,4.50
2022-12-20T03:50:31.505Z,4.54
2022-12-20T03:52:59.034Z,4.50
2022-12-20T03:55:27.077Z,4.55
2022-12-20T03:57:54.634Z,4.53
2022-12-20T04:00:29.450Z,4.52
2022-12-20T04:03:11.759Z,4.57
2022-12-20T04:05:40.370Z,4.56
2022-12-20T04:08:07.967Z,4.51
2022-12-20T04:10:55.478Z,4.51
2022-12-20T04:13:24.774Z,4.48
2022-12-20T04:15:58.301Z,4.47
2022-12-20T04:18:29.986Z,4.48
2022-12-20T04:21:01.246Z,4.55
2022-12-20T04:23:31.091Z,4.50
2022-12-20T04:25:59.720Z,4.59
2022-12-20T04:28:29.007Z,4.61
2022-12-20T04:30:57.826Z,4.60
2022-12-20T04:33:28.887Z,4.51
2022-12-20T04:35:56.663Z,4.56
2022-12-20T04:38:25.457Z,4.55
2022-12-20T04:40:55.188Z,4.59
2022-12-20T04:43:24.896Z,4.61
2022-12-20T04:45:56.541Z,4.59
2022-12-20T04:51:15.932Z,4.59
2022-12-20T04:53:48.125Z,4.58
2022-12-20T04:56:34.048Z,4.54
2022-12-20T04:59:07.843Z,4.49
2022-12-20T05:01:36.030Z,4.51
2022-12-20T05:04:04.159Z,4.55
2022-12-20T05:06:35.735Z,4.50
2022-12-20T05:09:03.565Z,4.60
2022-12-20T05:11:31.801Z,4.61
2022-12-20T05:13:59.259Z,4.62
2022-12-20T05:16:26.779Z,4.60
2022-12-20T05:18:54.220Z,4.56
2022-12-20T05:21:40.399Z,4.43
2022-12-20T05:24:28.662Z,4.51
2022-12-20T05:27:08.498Z,4.50
2022-12-20T05:29:36.098Z,4.59
2022-12-20T05:32:03.694Z,4.59
2022-12-20T05:34:33.038Z,4.58
2022-12-20T05:37:00.463Z,4.59
2022-12-20T05:39:31.163Z,4.67
2022-12-20T05:42:01.982Z,4.65
2022-12-20T05:44:29.481Z,4.68
2022-12-20T05:46:58.450Z,4.59
2022-12-20T05:49:29.645Z,4.66
2022-12-20T05:52:00.148Z,4.72
2022-12-20T05:54:27.758Z,4.71
2022-12-20T05:57:01.339Z,4.73
2022-12-20T05:59:40.796Z,4.73
2022-12-20T06:02:15.230Z,4.73
2022-12-20T06:05:03.623Z,4.75
2022-12-20T06:07:32.371Z,4.74
2022-12-20T06:10:00.812Z,4.71
2022-12-20T06:12:51.992Z,4.74
2022-12-20T06:15:19.564Z,4.86
2022-12-20T06:17:48.046Z,4.84
2022-12-20T06:20:16.057Z,4.83
2022-12-20T06:22:46.839Z,4.84
2022-12-20T06:25:15.889Z,4.85
2022-12-20T06:27:43.434Z,4.80
2022-12-20T06:30:17.510Z,4.81
2022-12-20T06:32:59.103Z,4.87
2022-12-20T06:35:26.582Z,4.83
2022-12-20T06:37:57.099Z,4.79
2022-12-20T06:40:24.619Z,4.77
2022-12-20T06:42:53.040Z,4.71
2022-12-20T06:45:23.515Z,4.67
2022-12-20T06:47:51.013Z,4.64
2022-12-20T06:50:18.486Z,4.74
2022-12-20T06:52:45.818Z,4.72
2022-12-20T06:55:13.292Z,4.72
2022-12-20T06:57:41.783Z,4.66
2022-12-20T07:00:10.449Z,4.65
2022-12-20T07:02:37.905Z,4.73
2022-12-20T07:05:05.921Z,4.75
2022-12-20T07:07:37.288Z,4.85
2022-12-20T07:10:08.997Z,4.82
2022-12-20T07:12:36.327Z,4.81
2022-12-20T07:15:05.747Z,4.79
2022-12-20T07:17:33.285Z,4.81
2022-12-20T07:20:00.955Z,4.89
2022-12-20T07:22:28.361Z,4.87
2022-12-20T07:24:56.187Z,4.83
2022-12-20T07:27:23.667Z,4.85
2022-12-20T07:29:51.849Z,4.79
2022-12-20T07:32:19.358Z,4.85
2022-12-20T07:34:46.872Z,4.89
2022-12-20T07:37:14.322Z,4.89
2022-12-20T07:39:42.333Z,4.84
2022-12-20T07:42:11.669Z,4.91
2022-12-20T07:44:43.710Z,4.73
2022-12-20T07:47:11.385Z,4.79
2022-12-20T07:49:38.854Z,4.96
2022-12-20T07:52:08.323Z,5.06
2022-12-20T07:54:54.875Z,5.01
2022-12-20T07:57:38.046Z,5.02
2022-12-20T08:00:06.547Z,5.05
2022-12-20T08:02:47.736Z,4.96
2022-12-20T08:05:16.128Z,5.00
2022-12-20T08:07:46.970Z,5.10
2022-12-20T08:10:17.087Z,5.01
2022-12-20T08:12:46.053Z,5.07
2022-12-20T08:15:13.592Z,5.11
2022-12-20T08:17:41.000Z,5.04
2022-12-20T08:20:08.761Z,5.08
2022-12-20T08:22:36.531Z,5.20
2022-12-20T08:25:04.903Z,5.18
2022-12-20T08:27:32.267Z,5.14
2022-12-20T08:30:00.107Z,5.23
2022-12-20T08:32:27.518Z,5.25
2022-12-20T08:34:56.082Z,5.29
2022-12-20T08:37:23.487Z,5.21
2022-12-20T08:39:50.864Z,5.10
2022-12-20T08:42:18.284Z,5.25
2022-12-20T08:44:45.905Z,5.19
2022-12-20T08:47:31.888Z,5.21
2022-12-20T08:49:59.246Z,5.20
2022-12-20T08:52:29.410Z,5.31
2022-12-20T08:54:56.905Z,5.28
2022-12-20T08:57:24.353Z,5.35
2022-12-20T08:59:51.798Z,5.32
2022-12-20T09:02:19.485Z,5.33
2022-12-20T09:04:47.539Z,5.41
2022-12-20T09:07:14.937Z,5.36
2022-12-20T09:09:42.319Z,5.27
2022-12-20T09:12:09.656Z,5.38
2022-12-20T09:14:37.850Z,5.33
2022-12-20T09:17:05.255Z,5.41
2022-12-20T09:19:32.635Z,5.43
2022-12-20T09:21:59.991Z,5.44
2022-12-20T09:24:27.362Z,5.44
2022-12-20T09:26:55.378Z,5.47
2022-12-20T09:29:28.367Z,5.51
2022-12-20T09:31:59.483Z,5.41
2022-12-20T09:34:27.412Z,5.39
2022-12-20T09:36:55.194Z,5.43
2022-12-20T09:39:22.645Z,5.37
2022-12-20T09:41:50.471Z,5.53
2022-12-20T09:44:25.862Z,5.54
2022-12-20T09:47:10.175Z,5.66
2022-12-20T09:49:43.469Z,5.66
2022-12-20T09:52:30.156Z,5.66
2022-12-20T09:55:00.584Z,5.63
2022-12-20T09:57:36.720Z,5.61
2022-12-20T10:00:16.119Z,5.67
2022-12-20T10:03:00.223Z,5.48
2022-12-20T10:06:00.909Z,5.71
2022-12-20T10:09:00.968Z,5.77
2022-12-20T10:11:52.608Z,5.88
2022-12-20T10:14:19.969Z,5.87
2022-12-20T10:16:53.434Z,5.98
2022-12-20T10:19:54.807Z,6.03
2022-12-20T10:22:47.371Z,5.88
2022-12-20T10:25:23.117Z,5.82
2022-12-20T10:27:56.994Z,5.90
2022-12-20T10:30:26.967Z,5.87
2022-12-20T10:32:57.401Z,5.91
2022-12-20T10:35:40.490Z,5.88
2022-12-20T10:38:13.928Z,5.91
2022-12-20T10:43:43.402Z,5.83
2022-12-20T10:46:13.261Z,5.80
2022-12-20T10:48:43.695Z,5.92
2022-12-20T10:51:16.273Z,5.93
2022-12-20T10:53:55.049Z,5.94
2022-12-20T10:56:24.665Z,6.00
2022-12-20T10:59:15.301Z,5.95
2022-12-20T11:01:46.319Z,5.92
2022-12-20T11:04:35.597Z,5.89
2022-12-20T11:07:24.277Z,5.92
2022-12-20T11:10:01.985Z,6.02
2022-12-20T11:12:29.469Z,6.03
2022-12-20T11:15:20.766Z,6.07
2022-12-20T11:18:09.440Z,5.90
2022-12-20T11:21:00.924Z,6.09
2022-12-20T11:23:45.418Z,6.20
2022-12-20T11:26:46.588Z,6.35
2022-12-20T11:30:02.290Z,6.32
2022-12-20T11:32:41.844Z,6.32
2022-12-20T11:36:06.619Z,6.21
2022-12-20T11:38:49.904Z,6.37
2022-12-20T11:41:36.162Z,6.45
2022-12-20T11:44:25.286Z,6.49
2022-12-20T11:47:08.914Z,6.65
2022-12-20T11:49:54.786Z,6.64
2022-12-20T11:52:28.146Z,6.53
2022-12-20T11:55:21.270Z,6.46
2022-12-20T11:58:17.457Z,6.44
2022-12-20T12:00:48.970Z,6.46
2022-12-20T12:03:39.928Z,6.48
2022-12-20T12:06:07.321Z,6.55
2022-12-20T12:08:43.462Z,6.65
2022-12-20T12:12:06.729Z,6.57
2022-12-20T12:15:16.671Z,6.47
2022-12-20T12:17:54.811Z,6.54
2022-12-20T12:20:22.086Z,6.58
2022-12-20T12:22:53.542Z,6.62
2022-12-20T12:25:21.870Z,6.68
2022-12-20T12:27:49.469Z,6.64
2022-12-20T12:30:17.495Z,6.83
2022-12-20T12:32:49.066Z,6.67
2022-12-20T12:35:34.872Z,6.63
2022-12-20T12:38:18.496Z,6.62
2022-12-20T12:41:01.070Z,6.59
2022-12-20T12:43:41.776Z,6.53
2022-12-20T12:46:26.086Z,6.55
2022-12-20T12:48:56.431Z,6.65
2022-12-20T12:51:34.904Z,6.86
2022-12-20T12:54:30.191Z,6.80
2022-12-20T12:57:10.835Z,6.68
2022-12-20T12:59:38.794Z,6.75
2022-12-20T13:02:16.062Z,6.77
2022-12-20T13:05:25.863Z,6.75
2022-12-20T13:07:55.045Z,6.90
2022-12-20T13:10:25.176Z,6.74
2022-12-20T13:12:53.213Z,6.62
2022-12-20T13:15:20.691Z,6.53
2022-12-20T13:18:13.662Z,6.45
2022-12-20T13:20:41.327Z,6.51
2022-12-20T13:23:08.780Z,6.60
2022-12-20T13:25:40.976Z,6.57
2022-12-20T13:28:23.345Z,6.63
2022-12-20T13:30:54.004Z,6.60
2022-12-20T13:33:47.559Z,6.59
2022-12-20T13:36:17.800Z,6.54
2022-12-20T13:38:48.204Z,6.59
2022-12-20T13:41:34.241Z,6.51
2022-12-20T13:44:26.819Z,6.35
2022-12-20T13:46:56.805Z,6.47
2022-12-20T13:49:29.167Z,6.52
2022-12-20T13:52:11.672Z,6.39
2022-12-20T13:54:48.965Z,6.41
2022-12-20T13:57:27.461Z,6.44
2022-12-20T14:00:05.338Z,6.47
2022-12-20T14:02:40.110Z,6.52
2022-12-20T14:05:16.469Z,6.49
2022-12-20T14:07:46.793Z,6.49
2022-12-20T14:10:22.871Z,6.53
2022-12-20T14:12:54.249Z,6.56
2022-12-20T14:15:33.300Z,6.51
2022-12-20T14:18:16.051Z,6.55
2022-12-20T14:20:44.872Z,6.46
2022-12-20T14:23:17.438Z,6.50
2022-12-20T14:25:54.942Z,6.44
2022-12-20T14:28:35.903Z,6.44
2022-12-20T14:31:05.911Z,6.51
2022-12-20T14:33:41.815Z,6.49
2022-12-20T14:36:16.670Z,6.47
2022-12-20T14:38:50.111Z,6.49
2022-12-20T14:41:39.864Z,6.52
2022-12-20T14:44:07.722Z,6.53
2022-12-20T14:46:36.019Z,6.53
2022-12-20T14:49:12.689Z,6.48
2022-12-20T14:51:40.625Z,6.47
2022-12-20T14:54:56.617Z,6.45
2022-12-20T14:57:20.184Z,6.53
2022-12-20T15:00:00.372Z,6.52
2022-12-20T15:02:42.251Z,6.57
2022-12-20T15:05:35.597Z,6.62
2022-12-20T15:08:11.915Z,6.65
2022-12-20T15:10:42.734Z,6.55
2022-12-20T15:13:15.574Z,6.59
2022-12-20T15:15:43.272Z,6.50
2022-12-20T15:18:15.588Z,6.48
2022-12-20T15:20:45.057Z,6.53
2022-12-20T15:23:18.813Z,6.51
2022-12-20T15:25:48.381Z,6.51
2022-12-20T15:28:23.599Z,6.52
2022-12-20T15:30:52.084Z,6.44
2022-12-20T15:33:26.023Z,6.45
2022-12-20T15:35:54.410Z,6.51
2022-12-20T15:38:47.496Z,6.38
2022-12-20T15:41:19.830Z,6.36
2022-12-20T15:43:48.435Z,6.35
2022-12-20T15:46:15.838Z,6.39
2022-12-20T15:48:43.352Z,6.35
2022-12-20T15:51:23.114Z,6.42
2022-12-20T15:53:50.520Z,6.41
2022-12-20T15:56:21.784Z,6.41
2022-12-20T15:58:49.863Z,6.41
2022-12-20T16:01:27.502Z,6.34
2022-12-20T16:03:55.283Z,6.34
2022-12-20T16:06:23.296Z,6.45
2022-12-20T16:08:50.897Z,6.44
2022-12-20T16:11:31.271Z,6.39
2022-12-20T16:13:59.411Z,6.34
2022-12-20T16:16:29.727Z,6.27
2022-12-20T16:18:58.204Z,6.38
2022-12-20T16:21:28.314Z,6.28
2022-12-20T16:23:55.691Z,6.35
2022-12-20T16:26:24.950Z,6.27
2022-12-20T16:28:54.640Z,6.27
2022-12-20T16:31:26.239Z,6.26
2022-12-20T16:33:54.061Z,6.19
2022-12-20T16:36:22.391Z,6.18
2022-12-20T16:38:50.981Z,6.18
2022-12-20T16:41:21.226Z,6.14
2022-12-20T16:43:49.242Z,6.22
2022-12-20T16:46:19.273Z,6.25
2022-12-20T16:48:47.666Z,6.24
2022-12-20T16:51:27.426Z,6.23
2022-12-20T16:54:21.786Z,6.23
2022-12-20T16:56:55.246Z,6.34
2022-12-20T16:59:23.757Z,6.36
2022-12-20T17:01:57.051Z,6.29
2022-12-20T17:04:26.257Z,6.34
2022-12-20T17:06:53.775Z,6.35
2022-12-20T17:09:21.248Z,6.20
2022-12-20T17:11:50.291Z,6.15
2022-12-20T17:14:20.171Z,6.23
2022-12-20T17:16:48.042Z,6.25
2022-12-20T17:19:15.594Z,6.24
2022-12-20T17:24:31.216Z,6.20
2022-12-20T17:26:58.594Z,6.28
2022-12-20T17:29:26.053Z,6.33
2022-12-20T17:31:53.538Z,6.25
2022-12-20T17:34:23.082Z,6.34
2022-12-20T17:36:53.040Z,6.26
2022-12-20T17:39:21.223Z,6.32
2022-12-20T17:41:49.670Z,6.38
2022-12-20T17:44:24.814Z,6.36
2022-12-20T17:46:53.299Z,6.38
2022-12-20T17:49:21.242Z,6.37
2022-12-20T17:51:49.677Z,6.38
2022-12-20T17:54:23.574Z,6.39
2022-12-20T17:56:51.404Z,6.42
2022-12-20T17:59:18.802Z,6.37
2022-12-20T18:01:46.983Z,6.35
2022-12-20T18:04:16.574Z,6.28
2022-12-20T18:06:45.940Z,6.31
2022-12-20T18:09:22.395Z,6.31
2022-12-20T18:11:49.819Z,6.26
2022-12-20T18:14:17.595Z,6.43
2022-12-20T18:16:45.228Z,6.41
2022-12-20T18:19:16.648Z,6.44
2022-12-20T18:21:45.029Z,6.48
2022-12-20T18:24:15.301Z,6.49
2022-12-20T18:26:44.973Z,6.53
2022-12-20T18:29:12.424Z,6.56
2022-12-20T18:31:39.901Z,6.37
2022-12-20T18:34:07.661Z,6.46
2022-12-20T18:36:37.428Z,6.41
2022-12-20T18:39:07.785Z,6.56
2022-12-20T18:41:35.602Z,6.59
2022-12-20T18:44:05.436Z,6.58
2022-12-20T18:46:33.850Z,6.65
2022-12-20T18:49:01.564Z,6.58
2022-12-20T18:51:36.697Z,6.67
2022-12-20T18:54:06.350Z,6.66
2022-12-20T18:56:36.648Z,6.59
2022-12-20T18:59:11.342Z,6.57
2022-12-20T19:01:41.616Z,6.57
2022-12-20T19:04:09.777Z,6.65
2022-12-20T19:06:37.597Z,6.56
2022-12-20T19:09:08.940Z,6.68
2022-12-20T19:11:36.855Z,6.61
2022-12-20T19:14:04.228Z,6.59
2022-12-20T19:16:32.985Z,6.56
2022-12-20T19:19:02.237Z,6.60
2022-12-20T19:21:32.917Z,6.49
2022-12-20T19:24:07.039Z,6.57
2022-12-20T19:26:36.660Z,6.63
2022-12-20T19:29:05.654Z,6.66
2022-12-20T19:31:36.379Z,6.62
2022-12-20T19:34:07.313Z,6.63
2022-12-20T19:36:38.065Z,6.59
2022-12-20T19:39:08.289Z,6.48
2022-12-20T19:41:36.064Z,6.52
2022-12-20T19:44:04.276Z,6.42
2022-12-20T19:46:31.799Z,6.50
2022-12-20T19:49:00.257Z,6.47
2022-12-20T19:51:28.409Z,6.47
2022-12-20T19:53:57.612Z,6.47
2022-12-20T19:56:28.973Z,6.48
2022-12-20T19:58:56.468Z,6.50
2022-12-20T20:01:26.927Z,6.47
2022-12-20T20:03:56.180Z,6.64
2022-12-20T20:06:24.001Z,6.69
2022-12-20T20:08:51.555Z,6.55
2022-12-20T20:11:21.030Z,6.52
2022-12-20T20:13:48.600Z,6.47
2022-12-20T20:16:21.840Z,6.39
2022-12-20T20:18:50.318Z,6.39
2022-12-20T20:21:21.911Z,6.35
2022-12-20T20:23:51.770Z,6.43
2022-12-20T20:26:29.411Z,6.35
2022-12-20T20:28:57.483Z,6.36
2022-12-20T20:31:25.020Z,6.41
2022-12-20T20:33:52.636Z,6.41
2022-12-20T20:36:23.337Z,6.50
2022-12-20T20:38:52.308Z,6.50
2022-12-20T20:41:19.792Z,6.54
2022-12-20T20:43:47.231Z,6.52
2022-12-20T20:46:16.676Z,6.52
2022-12-20T20:48:44.915Z,6.53
2022-12-20T20:51:12.781Z,6.52
2022-12-20T20:53:40.689Z,6.49
2022-12-20T20:56:09.095Z,6.44
2022-12-20T20:58:37.376Z,6.44
2022-12-20T21:01:08.577Z,6.44
2022-12-20T21:03:37.264Z,6.46
2022-12-20T21:08:55.968Z,6.50
2022-12-20T21:11:24.040Z,6.51
2022-12-20T21:13:54.127Z,6.49
2022-12-20T21:16:22.685Z,6.45
2022-12-20T21:18:54.806Z,6.41
2022-12-20T21:21:23.796Z,6.49
2022-12-20T21:23:52.796Z,6.45
2022-12-20T21:26:21.995Z,6.49
2022-12-20T21:28:49.468Z,6.43
2022-12-20T21:31:18.653Z,6.49
2022-12-20T21:33:46.427Z,6.49
2022-12-20T21:36:18.762Z,6.47
2022-12-20T21:38:54.095Z,6.61
2022-12-20T21:41:23.371Z,6.53
2022-12-20T21:43:51.407Z,6.44
2022-12-20T21:46:18.833Z,6.39
2022-12-20T21:48:46.957Z,6.46
2022-12-20T21:51:17.928Z,6.41
2022-12-20T21:53:47.610Z,6.42
2022-12-20T21:56:18.109Z,6.35
2022-12-20T21:58:45.977Z,6.22
2022-12-20T22:01:16.521Z,6.17
2022-12-20T22:03:44.617Z,6.30
2022-12-20T22:06:12.501Z,6.35
2022-12-20T22:08:39.886Z,6.30
2022-12-20T22:11:10.681Z,6.41
2022-12-20T22:13:41.612Z,6.50
2022-12-20T22:16:12.067Z,6.32
2022-12-20T22:18:40.715Z,6.17
2022-12-20T22:21:13.846Z,6.27
2022-12-20T22:23:41.614Z,6.20
2022-12-20T22:26:12.817Z,6.12
2022-12-20T22:28:47.473Z,6.06
2022-12-20T22:31:16.052Z,5.95
2022-12-20T22:33:44.455Z,5.95
2022-12-20T22:36:14.405Z,5.91
2022-12-20T22:38:43.384Z,5.94
2022-12-20T22:41:13.735Z,5.97
2022-12-20T22:43:42.567Z,5.89
2022-12-20T22:48:56.410Z,5.95
2022-12-20T22:51:30.693Z,5.98
2022-12-20T22:53:58.763Z,6.01
2022-12-20T22:56:26.347Z,6.02
2022-12-20T22:58:53.763Z,6.00
2022-12-20T23:01:21.472Z,6.03
2022-12-20T23:03:49.545Z,6.04
2022-12-20T23:06:20.252Z,6.02
2022-12-20T23:08:48.304Z,5.91
2022-12-20T23:11:40.921Z,6.08
2022-12-20T23:14:32.299Z,5.95
2022-12-20T23:17:00.744Z,6.02
2022-12-20T23:19:28.828Z,6.10
2022-12-20T23:22:14.859Z,6.02
2022-12-20T23:24:42.239Z,5.99
2022-12-20T23:27:09.522Z,5.91
2022-12-20T23:29:36.860Z,6.01
2022-12-20T23:32:04.313Z,6.07
2022-12-20T23:34:31.745Z,6.22
2022-12-20T23:36:59.476Z,6.14
2022-12-20T23:39:26.764Z,6.11
2022-12-20T23:41:54.192Z,6.09
2022-12-20T23:44:21.869Z,6.13
2022-12-20T23:46:49.666Z,6.18
2022-12-20T23:49:17.215Z,6.22
2022-12-20T23:51:44.528Z,6.15
2022-12-20T23:54:12.230Z,6.14
2022-12-20T23:56:39.608Z,6.16
2022-12-20T23:59:06.932Z,6.18
